createdAt,value
2022-12-06T00:01:24.577Z,0.00
2022-12-06T00:03:57.128Z,-0.10
2022-12-06T00:06:27.733Z,-0.30
2022-12-06T00:08:55.956Z,-0.50
2022-12-06T00:11:25.248Z,-0.70
2022-12-06T00:13:57.588Z,-0.60
2022-12-06T00:16:25.486Z,-0.40
2022-12-06T00:18:53.374Z,-0.40
2022-12-06T00:21:29.549Z,-0.50
2022-12-06T00:23:59.877Z,-0.60
2022-12-06T00:26:27.658Z,-0.80
2022-12-06T00:28:56.536Z,-0.90
2022-12-06T00:31:24.933Z,-0.90
2022-12-06T00:33:52.402Z,-1.10
2022-12-06T00:36:24.525Z,-1.20
2022-12-06T00:38:52.059Z,-1.30
2022-12-06T00:41:23.991Z,-1.20
2022-12-06T00:43:52.049Z,-1.00
2022-12-06T00:46:21.314Z,-0.90
2022-12-06T00:48:49.198Z,-0.90
2022-12-06T00:51:17.609Z,-1.00
2022-12-06T00:53:45.166Z,-1.00
2022-12-06T00:56:12.231Z,-1.10
2022-12-06T00:58:39.280Z,-1.20
2022-12-06T01:01:13.980Z,-1.20
2022-12-06T01:03:41.424Z,-1.30
2022-12-06T01:06:11.320Z,-1.30
2022-12-06T01:08:39.292Z,-1.30
2022-12-06T01:11:07.680Z,-1.30
2022-12-06T01:13:35.014Z,-1.20
2022-12-06T01:16:09.898Z,-1.30
2022-12-06T01:18:37.122Z,-1.20
2022-12-06T01:21:11.784Z,-1.20
2022-12-06T01:23:39.204Z,-1.00
2022-12-06T01:26:07.299Z,-1.00
2022-12-06T01:28:34.629Z,-1.20
2022-12-06T01:31:07.269Z,-1.40
2022-12-06T01:33:34.425Z,-1.60
2022-12-06T01:36:01.331Z,-1.70
2022-12-06T01:38:28.190Z,-1.80
2022-12-06T01:40:55.339Z,-1.90
2022-12-06T01:43:44.005Z,-2.00
2022-12-06T01:46:13.738Z,-2.10
2022-12-06T01:48:41.731Z,-2.10
2022-12-06T01:51:11.679Z,-1.90
2022-12-06T01:53:40.320Z,-1.60
2022-12-06T01:56:07.961Z,-1.50
2022-12-06T01:58:40.488Z,-1.50
2022-12-06T02:01:09.500Z,-1.60
2022-12-06T02:03:37.512Z,-1.60
2022-12-06T02:06:06.665Z,-1.50
2022-12-06T02:08:34.367Z,-1.50
2022-12-06T02:11:03.550Z,-1.50
2022-12-06T02:13:32.322Z,-1.50
2022-12-06T02:16:13.919Z,-1.50
2022-12-06T02:19:13.633Z,-1.40
2022-12-06T02:21:54.065Z,-1.50
2022-12-06T02:24:43.971Z,-1.60
2022-12-06T02:27:52.493Z,-1.60
2022-12-06T02:30:45.253Z,-1.50
2022-12-06T02:33:34.651Z,-1.40
2022-12-06T02:36:05.348Z,-1.40
2022-12-06T02:38:48.632Z,-1.50
2022-12-06T02:41:32.096Z,-1.50
2022-12-06T02:44:03.562Z,-1.40
2022-12-06T02:46:34.808Z,-1.50
2022-12-06T02:49:04.555Z,-1.50
2022-12-06T02:51:34.871Z,-1.50
2022-12-06T02:54:05.274Z,-1.50
2022-12-06T02:56:33.553Z,-1.50
2022-12-06T02:59:01.139Z,-1.50
2022-12-06T03:01:32.060Z,-1.50
2022-12-06T03:04:17.847Z,-1.50
2022-12-06T03:07:05.877Z,-1.50
2022-12-06T03:10:08.256Z,-1.50
2022-12-06T03:12:35.171Z,-1.50
2022-12-06T03:15:34.200Z,-1.40
2022-12-06T03:18:07.061Z,-1.40
2022-12-06T03:20:43.035Z,-1.40
2022-12-06T03:23:18.755Z,-1.40
2022-12-06T03:25:48.223Z,-1.50
2022-12-06T03:28:16.774Z,-1.50
2022-12-06T03:30:50.310Z,-1.50
2022-12-06T03:33:22.152Z,-1.50
2022-12-06T03:35:52.314Z,-1.50
2022-12-06T03:38:28.015Z,-1.40
2022-12-06T03:41:00.031Z,-1.40
2022-12-06T03:43:27.128Z,-1.50
2022-12-06T03:46:21.802Z,-1.50
2022-12-06T03:49:01.606Z,-1.50
2022-12-06T03:51:34.465Z,-1.40
2022-12-06T03:54:04.778Z,-1.40
2022-12-06T03:56:32.869Z,-1.30
2022-12-06T03:58:59.845Z,-1.30
2022-12-06T04:01:26.870Z,-1.30
2022-12-06T04:03:53.727Z,-1.30
2022-12-06T04:06:20.629Z,-1.30
2022-12-06T04:08:47.446Z,-1.30
2022-12-06T04:11:14.308Z,-1.30
2022-12-06T04:13:41.700Z,-1.20
2022-12-06T04:16:29.288Z,-1.20
2022-12-06T04:18:56.265Z,-1.10
2022-12-06T04:21:31.937Z,-1.10
2022-12-06T04:23:59.912Z,-1.00
2022-12-06T04:26:27.127Z,-0.90
2022-12-06T04:29:12.637Z,-1.00
2022-12-06T04:31:59.504Z,-0.90
2022-12-06T04:34:45.011Z,-0.90
2022-12-06T04:37:30.685Z,-0.80
2022-12-06T04:39:57.726Z,-0.80
2022-12-06T04:42:43.508Z,-0.70
2022-12-06T04:45:10.634Z,-0.70
2022-12-06T04:47:37.540Z,-0.60
2022-12-06T04:50:04.853Z,-0.60
2022-12-06T04:52:35.614Z,-0.60
2022-12-06T04:55:04.028Z,-0.50
2022-12-06T04:57:31.093Z,-0.50
2022-12-06T04:59:58.446Z,-0.50
2022-12-06T05:02:25.558Z,-0.40
2022-12-06T05:04:52.892Z,-0.40
2022-12-06T05:07:19.793Z,-0.50
2022-12-06T05:09:46.617Z,-0.40
2022-12-06T05:12:13.437Z,-0.50
2022-12-06T05:14:40.273Z,-0.50
2022-12-06T05:17:07.303Z,-0.50
2022-12-06T05:19:34.156Z,-0.50
2022-12-06T05:22:00.958Z,-0.50
2022-12-06T05:24:27.775Z,-0.50
2022-12-06T05:26:54.608Z,-0.50
2022-12-06T05:29:21.397Z,-0.40
2022-12-06T05:31:48.627Z,-0.40
2022-12-06T05:34:15.542Z,-0.30
2022-12-06T05:36:45.451Z,-0.40
2022-12-06T05:39:12.474Z,-0.40
2022-12-06T05:41:39.261Z,-0.30
2022-12-06T05:44:06.162Z,-0.30
2022-12-06T05:46:32.961Z,-0.30
2022-12-06T05:48:59.757Z,-0.30
2022-12-06T05:51:26.639Z,-0.30
2022-12-06T05:53:53.423Z,-0.30
2022-12-06T05:56:20.494Z,-0.30
2022-12-06T05:58:47.264Z,-0.30
2022-12-06T06:01:14.064Z,-0.20
2022-12-06T06:03:46.960Z,-0.20
2022-12-06T06:06:14.768Z,-0.20
2022-12-06T06:08:41.675Z,-0.20
2022-12-06T06:11:08.845Z,-0.20
2022-12-06T06:13:35.638Z,-0.20
2022-12-06T06:16:02.446Z,-0.20
2022-12-06T06:18:29.397Z,-0.20
2022-12-06T06:20:59.264Z,-0.10
2022-12-06T06:23:27.902Z,-0.10
2022-12-06T06:25:54.923Z,-0.10
2022-12-06T06:28:22.351Z,-0.10
2022-12-06T06:30:49.424Z,-0.10
2022-12-06T06:33:16.351Z,-0.20
2022-12-06T06:35:43.490Z,-0.10
2022-12-06T06:38:10.580Z,-0.20
2022-12-06T06:40:37.335Z,-0.20
2022-12-06T06:43:20.545Z,-0.20
2022-12-06T06:46:13.841Z,0.30
2022-12-06T06:48:40.903Z,0.50
2022-12-06T06:51:13.392Z,0.70
2022-12-06T06:53:43.662Z,1.00
2022-12-06T06:56:10.555Z,0.80
2022-12-06T06:58:37.658Z,0.50
2022-12-06T07:01:06.408Z,0.40
2022-12-06T07:03:34.096Z,0.20
2022-12-06T07:06:10.517Z,0.20
2022-12-06T07:08:39.679Z,0.10
2022-12-06T07:11:06.554Z,0.10
2022-12-06T07:13:33.790Z,0.10
2022-12-06T07:16:04.258Z,0.00
2022-12-06T07:18:31.104Z,0.00
2022-12-06T07:21:01.834Z,0.00
2022-12-06T07:23:29.033Z,0.00
2022-12-06T07:26:06.555Z,0.00
2022-12-06T07:28:36.749Z,0.00
2022-12-06T07:31:11.948Z,0.00
2022-12-06T07:33:39.940Z,0.10
2022-12-06T07:36:12.617Z,0.00
2022-12-06T07:38:40.154Z,0.00
2022-12-06T07:41:28.499Z,0.10
2022-12-06T07:44:14.994Z,0.10
2022-12-06T07:46:42.065Z,0.10
2022-12-06T07:49:09.202Z,0.10
2022-12-06T07:51:36.040Z,0.10
2022-12-06T07:54:03.861Z,0.10
2022-12-06T07:56:30.672Z,0.10
2022-12-06T07:58:57.561Z,0.20
2022-12-06T08:01:24.611Z,0.20
2022-12-06T08:03:51.497Z,0.20
2022-12-06T08:06:18.280Z,0.20
2022-12-06T08:08:45.118Z,0.30
2022-12-06T08:11:11.899Z,0.30
2022-12-06T08:13:38.859Z,0.40
2022-12-06T08:16:07.448Z,0.40
2022-12-06T08:18:34.301Z,0.40
2022-12-06T08:21:01.745Z,0.40
2022-12-06T08:23:33.918Z,0.50
2022-12-06T08:26:09.724Z,0.50
2022-12-06T08:28:37.625Z,0.50
2022-12-06T08:31:10.054Z,0.50
2022-12-06T08:33:37.305Z,0.60
2022-12-06T08:36:12.232Z,0.60
2022-12-06T08:38:39.457Z,0.80
2022-12-06T08:41:27.550Z,0.70
2022-12-06T08:43:55.554Z,0.80
2022-12-06T08:46:22.740Z,0.80
2022-12-06T08:48:50.336Z,0.80
2022-12-06T08:51:17.746Z,0.80
2022-12-06T08:53:44.668Z,0.90
2022-12-06T08:56:11.922Z,0.90
2022-12-06T08:58:38.712Z,0.90
2022-12-06T09:01:20.525Z,0.90
2022-12-06T09:03:48.016Z,0.90
2022-12-06T09:06:15.533Z,0.90
2022-12-06T09:08:42.421Z,0.90
2022-12-06T09:11:10.078Z,0.90
2022-12-06T09:13:38.038Z,1.10
2022-12-06T09:16:11.572Z,1.10
2022-12-06T09:18:38.626Z,1.10
2022-12-06T09:21:17.476Z,1.10
2022-12-06T09:23:45.195Z,1.20
2022-12-06T09:26:12.161Z,1.20
2022-12-06T09:28:40.895Z,1.30
2022-12-06T09:31:08.938Z,1.50
2022-12-06T09:33:36.519Z,1.60
2022-12-06T09:36:10.865Z,1.70
2022-12-06T09:38:40.312Z,1.70
2022-12-06T09:41:38.700Z,1.60
2022-12-06T09:44:11.680Z,1.70
2022-12-06T09:47:02.104Z,1.80
2022-12-06T09:49:39.807Z,2.00
2022-12-06T09:52:27.792Z,2.10
2022-12-06T09:55:27.172Z,2.20
2022-12-06T09:58:20.003Z,2.10
2022-12-06T10:01:03.008Z,2.00
2022-12-06T10:03:50.741Z,1.90
2022-12-06T10:06:20.464Z,1.90
2022-12-06T10:08:50.506Z,1.80
2022-12-06T10:11:55.023Z,2.00
2022-12-06T10:14:48.920Z,2.30
2022-12-06T10:17:34.527Z,2.30
2022-12-06T10:20:38.434Z,2.40
2022-12-06T10:23:13.172Z,2.50
2022-12-06T10:25:46.147Z,2.60
2022-12-06T10:28:19.877Z,2.80
2022-12-06T10:30:56.387Z,2.90
2022-12-06T10:33:52.372Z,3.10
2022-12-06T10:36:40.930Z,3.30
2022-12-06T10:39:59.060Z,3.40
2022-12-06T10:42:40.689Z,3.50
2022-12-06T10:45:49.955Z,3.80
2022-12-06T10:48:41.574Z,4.10
2022-12-06T10:51:14.733Z,4.50
2022-12-06T10:53:48.999Z,5.00
2022-12-06T10:56:39.358Z,5.80
2022-12-06T10:59:34.743Z,7.60
2022-12-06T11:02:19.477Z,8.20
2022-12-06T11:04:47.423Z,9.00
2022-12-06T11:07:25.530Z,9.00
2022-12-06T11:09:55.625Z,8.70
2022-12-06T11:12:31.644Z,8.30
2022-12-06T11:15:20.200Z,8.40
2022-12-06T11:17:52.419Z,8.90
2022-12-06T11:20:32.918Z,8.40
2022-12-06T11:23:40.834Z,8.10
2022-12-06T11:26:31.013Z,8.20
2022-12-06T11:29:10.040Z,7.10
2022-12-06T11:31:42.806Z,6.70
2022-12-06T11:34:24.029Z,7.20
2022-12-06T11:36:58.178Z,8.10
2022-12-06T11:39:28.490Z,8.80
2022-12-06T11:41:58.581Z,9.10
2022-12-06T11:44:36.357Z,9.10
2022-12-06T11:47:03.665Z,8.80
2022-12-06T11:49:40.333Z,8.80
2022-12-06T11:52:19.400Z,9.00
2022-12-06T11:54:57.815Z,9.20
2022-12-06T11:57:31.911Z,7.70
2022-12-06T12:00:07.909Z,7.70
2022-12-06T12:02:40.152Z,7.40
2022-12-06T12:05:24.184Z,5.90
2022-12-06T12:08:05.574Z,6.20
2022-12-06T12:10:37.896Z,6.60
2022-12-06T12:13:44.185Z,7.20
2022-12-06T12:16:19.624Z,6.40
2022-12-06T12:18:51.507Z,6.70
2022-12-06T12:21:37.012Z,6.60
2022-12-06T12:24:05.751Z,6.30
2022-12-06T12:26:39.436Z,5.90
2022-12-06T12:29:06.262Z,6.00
2022-12-06T12:31:45.184Z,7.00
2022-12-06T12:34:24.583Z,8.20
2022-12-06T12:37:01.357Z,8.30
2022-12-06T12:39:38.250Z,7.90
2022-12-06T12:42:25.279Z,7.40
2022-12-06T12:44:57.876Z,7.10
2022-12-06T12:47:25.561Z,6.70
2022-12-06T12:50:02.813Z,6.30
2022-12-06T12:52:36.048Z,5.90
2022-12-06T12:55:31.195Z,5.20
2022-12-06T12:58:01.242Z,5.10
2022-12-06T13:00:32.507Z,5.00
2022-12-06T13:03:03.901Z,5.00
2022-12-06T13:05:36.237Z,4.80
2022-12-06T13:08:19.329Z,4.60
2022-12-06T13:10:58.467Z,4.50
2022-12-06T13:13:34.140Z,4.60
2022-12-06T13:16:07.243Z,4.90
2022-12-06T13:18:44.698Z,5.50
2022-12-06T13:21:23.451Z,5.70
2022-12-06T13:23:57.780Z,6.80
2022-12-06T13:26:28.926Z,7.10
2022-12-06T13:29:04.970Z,7.30
2022-12-06T13:31:36.886Z,7.20
2022-12-06T13:34:15.902Z,7.10
2022-12-06T13:36:42.936Z,7.30
2022-12-06T13:39:31.697Z,7.60
2022-12-06T13:42:19.109Z,7.00
2022-12-06T13:44:53.217Z,6.80
2022-12-06T13:47:29.301Z,6.10
2022-12-06T13:50:23.180Z,5.30
2022-12-06T13:52:49.985Z,5.10
2022-12-06T13:55:26.460Z,5.00
2022-12-06T13:58:16.393Z,4.70
2022-12-06T14:00:43.199Z,4.40
2022-12-06T14:03:19.244Z,4.90
2022-12-06T14:06:14.272Z,5.60
2022-12-06T14:08:43.766Z,7.00
2022-12-06T14:11:16.255Z,7.50
2022-12-06T14:13:46.368Z,7.30
2022-12-06T14:16:28.083Z,7.60
2022-12-06T14:18:55.235Z,6.90
2022-12-06T14:21:29.450Z,5.90
2022-12-06T14:23:57.134Z,5.40
2022-12-06T14:26:25.414Z,5.20
2022-12-06T14:28:54.245Z,5.10
2022-12-06T14:31:44.361Z,4.90
2022-12-06T14:34:25.732Z,4.70
2022-12-06T14:36:53.188Z,4.20
2022-12-06T14:39:24.457Z,4.10
2022-12-06T14:42:16.070Z,4.00
2022-12-06T14:45:00.497Z,3.80
2022-12-06T14:47:29.706Z,3.60
2022-12-06T14:50:20.412Z,3.50
2022-12-06T14:52:56.615Z,3.60
2022-12-06T14:55:24.576Z,3.40
2022-12-06T14:58:00.299Z,3.40
2022-12-06T15:00:48.439Z,3.30
2022-12-06T15:03:15.228Z,3.20
2022-12-06T15:05:44.209Z,3.00
2022-12-06T15:08:26.619Z,3.10
2022-12-06T15:10:57.765Z,3.00
2022-12-06T15:13:24.780Z,3.00
2022-12-06T15:16:09.779Z,3.10
2022-12-06T15:18:40.765Z,3.10
2022-12-06T15:21:15.506Z,3.00
2022-12-06T15:23:53.109Z,2.90
2022-12-06T15:26:21.432Z,2.90
2022-12-06T15:28:49.077Z,3.00
2022-12-06T15:31:22.724Z,2.80
2022-12-06T15:33:49.819Z,2.80
2022-12-06T15:36:25.788Z,2.70
2022-12-06T15:38:52.995Z,2.70
2022-12-06T15:41:22.650Z,2.70
2022-12-06T15:43:50.872Z,2.60
2022-12-06T15:46:23.751Z,2.50
2022-12-06T15:48:51.732Z,2.50
2022-12-06T15:51:21.806Z,2.50
2022-12-06T15:53:49.989Z,2.40
2022-12-06T15:56:20.271Z,2.40
2022-12-06T15:58:47.737Z,2.40
2022-12-06T16:01:27.409Z,2.50
2022-12-06T16:03:56.324Z,2.50
2022-12-06T16:06:25.836Z,2.40
2022-12-06T16:08:52.953Z,2.40
2022-12-06T16:11:23.947Z,2.40
2022-12-06T16:13:51.548Z,2.30
2022-12-06T16:16:20.375Z,2.30
2022-12-06T16:18:48.076Z,2.30
2022-12-06T16:21:24.505Z,2.30
2022-12-06T16:24:14.733Z,2.30
2022-12-06T16:26:44.372Z,2.30
2022-12-06T16:29:18.717Z,2.30
2022-12-06T16:31:45.697Z,2.30
2022-12-06T16:34:13.752Z,2.30
2022-12-06T16:37:13.508Z,2.30
2022-12-06T16:39:40.354Z,2.30
2022-12-06T16:42:07.132Z,2.20
2022-12-06T16:44:50.776Z,2.20
2022-12-06T16:47:17.732Z,2.20
2022-12-06T16:49:46.202Z,2.30
2022-12-06T16:52:14.523Z,2.30
2022-12-06T16:54:42.133Z,2.30
2022-12-06T16:57:13.001Z,2.40
2022-12-06T16:59:40.586Z,2.50
2022-12-06T17:02:22.114Z,2.50
2022-12-06T17:04:48.938Z,2.50
2022-12-06T17:07:15.772Z,2.30
2022-12-06T17:09:42.996Z,2.20
2022-12-06T17:12:13.175Z,2.20
2022-12-06T17:14:41.148Z,2.20
2022-12-06T17:17:13.765Z,2.20
2022-12-06T17:19:41.993Z,2.20
2022-12-06T17:22:13.224Z,2.10
2022-12-06T17:24:40.082Z,2.10
2022-12-06T17:27:09.104Z,2.00
2022-12-06T17:29:36.327Z,2.00
2022-12-06T17:32:03.183Z,2.00
2022-12-06T17:34:29.955Z,2.00
2022-12-06T17:36:57.988Z,2.00
2022-12-06T17:39:25.417Z,2.00
2022-12-06T17:42:10.844Z,2.00
2022-12-06T17:44:39.836Z,2.00
2022-12-06T17:47:07.199Z,2.00
2022-12-06T17:49:36.111Z,2.00
2022-12-06T17:52:03.052Z,2.00
2022-12-06T17:54:29.855Z,2.00
2022-12-06T17:56:56.795Z,2.00
2022-12-06T17:59:26.269Z,2.10
2022-12-06T18:04:41.372Z,2.10
2022-12-06T18:07:08.356Z,2.00
2022-12-06T18:09:35.312Z,2.10
2022-12-06T18:12:02.637Z,2.10
2022-12-06T18:14:29.703Z,2.10
2022-12-06T18:16:56.809Z,2.00
2022-12-06T18:19:23.982Z,2.00
2022-12-06T18:21:53.011Z,2.00
2022-12-06T18:24:23.178Z,2.00
2022-12-06T18:26:52.310Z,2.00
2022-12-06T18:29:22.660Z,2.00
2022-12-06T18:31:50.307Z,2.10
2022-12-06T18:34:17.600Z,2.00
2022-12-06T18:36:44.501Z,2.10
2022-12-06T18:39:15.874Z,2.10
2022-12-06T18:41:46.281Z,2.10
2022-12-06T18:44:13.663Z,2.10
2022-12-06T18:46:44.370Z,2.00
2022-12-06T18:49:12.264Z,2.00
2022-12-06T18:51:39.598Z,2.00
2022-12-06T18:54:08.064Z,2.00
2022-12-06T18:56:35.871Z,2.00
2022-12-06T18:59:06.184Z,1.90
2022-12-06T19:01:35.692Z,1.90
2022-12-06T19:04:04.793Z,1.90
2022-12-06T19:06:37.924Z,2.00
2022-12-06T19:09:07.891Z,2.00
2022-12-06T19:11:41.279Z,2.00
2022-12-06T19:14:08.820Z,2.00
2022-12-06T19:16:38.567Z,2.00
2022-12-06T19:19:12.783Z,2.10
2022-12-06T19:21:43.883Z,2.10
2022-12-06T19:24:13.007Z,2.10
2022-12-06T19:26:40.938Z,2.00
2022-12-06T19:29:07.799Z,1.90
2022-12-06T19:31:35.362Z,1.90
2022-12-06T19:34:02.353Z,1.90
2022-12-06T19:36:30.681Z,1.90
2022-12-06T19:39:03.108Z,1.90
2022-12-06T19:41:30.751Z,1.90
2022-12-06T19:44:16.292Z,1.90
2022-12-06T19:46:45.428Z,1.90
2022-12-06T19:49:14.220Z,2.00
2022-12-06T19:51:43.283Z,2.00
2022-12-06T19:54:23.147Z,2.00
2022-12-06T19:56:53.286Z,2.00
2022-12-06T19:59:21.898Z,2.00
2022-12-06T20:01:50.124Z,2.00
2022-12-06T20:04:19.353Z,2.00
2022-12-06T20:06:46.842Z,2.10
2022-12-06T20:09:13.995Z,2.00
2022-12-06T20:12:01.265Z,2.00
2022-12-06T20:14:43.997Z,2.00
2022-12-06T20:17:13.993Z,1.90
2022-12-06T20:19:46.286Z,1.90
2022-12-06T20:22:14.301Z,2.00
2022-12-06T20:24:41.233Z,1.90
2022-12-06T20:27:08.286Z,1.90
2022-12-06T20:29:35.104Z,2.00
2022-12-06T20:32:02.413Z,1.90
2022-12-06T20:34:33.788Z,1.90
2022-12-06T20:37:04.145Z,1.90
2022-12-06T20:39:33.057Z,1.80
2022-12-06T20:42:01.028Z,1.80
2022-12-06T20:44:27.999Z,1.80
2022-12-06T20:46:54.925Z,1.80
2022-12-06T20:49:21.917Z,1.80
2022-12-06T20:51:52.986Z,1.80
2022-12-06T20:54:21.155Z,1.80
2022-12-06T20:56:51.494Z,1.70
2022-12-06T20:59:19.280Z,1.70
2022-12-06T21:01:46.257Z,1.70
2022-12-06T21:04:14.415Z,1.70
2022-12-06T21:06:41.513Z,1.70
2022-12-06T21:09:08.547Z,1.70
2022-12-06T21:11:35.446Z,1.80
2022-12-06T21:14:03.662Z,1.90
2022-12-06T21:16:32.010Z,2.00
2022-12-06T21:19:04.880Z,2.00
2022-12-06T21:21:36.824Z,2.00
2022-12-06T21:24:06.047Z,1.90
2022-12-06T21:26:33.489Z,1.90
2022-12-06T21:29:00.398Z,1.90
2022-12-06T21:31:29.071Z,1.80
2022-12-06T21:33:56.781Z,1.70
2022-12-06T21:36:24.368Z,1.70
2022-12-06T21:38:51.797Z,1.70
2022-12-06T21:41:18.980Z,1.70
2022-12-06T21:43:46.172Z,1.70
2022-12-06T21:46:18.983Z,1.60
2022-12-06T21:48:50.715Z,1.60
2022-12-06T21:51:18.114Z,1.50
2022-12-06T21:53:44.882Z,1.50
2022-12-06T21:56:17.926Z,1.50
2022-12-06T21:58:45.314Z,1.50
2022-12-06T22:01:14.692Z,1.40
2022-12-06T22:03:42.103Z,1.40
2022-12-06T22:06:11.315Z,1.50
2022-12-06T22:08:39.501Z,1.50
2022-12-06T22:11:17.556Z,1.50
2022-12-06T22:13:45.641Z,1.40
2022-12-06T22:16:13.350Z,1.40
2022-12-06T22:18:45.455Z,1.40
2022-12-06T22:21:27.391Z,1.40
2022-12-06T22:23:55.844Z,1.40
2022-12-06T22:26:23.484Z,1.30
2022-12-06T22:28:50.908Z,1.30
2022-12-06T22:31:21.160Z,1.20
2022-12-06T22:33:48.779Z,1.20
2022-12-06T22:36:16.383Z,1.30
2022-12-06T22:38:43.561Z,1.30
2022-12-06T22:41:14.098Z,1.20
2022-12-06T22:43:40.961Z,1.20
2022-12-06T22:46:10.964Z,1.20
2022-12-06T22:48:38.932Z,1.20
2022-12-06T22:51:24.967Z,1.30
2022-12-06T22:53:57.256Z,1.20
2022-12-06T22:56:24.944Z,1.20
2022-12-06T22:58:53.542Z,1.20
2022-12-06T23:01:21.985Z,1.20
2022-12-06T23:03:50.865Z,1.20
2022-12-06T23:06:20.892Z,1.20
2022-12-06T23:08:48.196Z,1.20
2022-12-06T23:11:20.788Z,1.20
2022-12-06T23:13:47.852Z,1.20
2022-12-06T23:16:20.535Z,1.20
2022-12-06T23:18:47.604Z,1.10
2022-12-06T23:21:20.040Z,1.10
2022-12-06T23:23:52.401Z,1.20
2022-12-06T23:26:31.782Z,1.20
2022-12-06T23:28:58.715Z,1.10
2022-12-06T23:31:33.227Z,1.10
2022-12-06T23:34:06.660Z,1.10
2022-12-06T23:36:35.020Z,1.10
2022-12-06T23:39:02.833Z,1.10
2022-12-06T23:41:31.115Z,1.00
2022-12-06T23:43:59.447Z,1.00
2022-12-06T23:46:31.607Z,1.00
2022-12-06T23:48:59.291Z,0.90
2022-12-06T23:51:35.152Z,1.00
2022-12-06T23:54:04.333Z,1.00
2022-12-06T23:56:34.018Z,1.00
2022-12-06T23:59:02.174Z,1.00
